Timeline UpdatesTrip UpdatesNews PostsPvt PostsTravel TipsAdmin PostsConv PostsFollowed PostsChat RequestsBlog PostsPNR Posts

Disclaimer
Search
 
 
Fri Aug 1, 2014 19:26:42 ISTHomeTrainsΣChainsAtlasPNRForumGalleryNewsFAQTripsMembersLoginFeedback
No Recent News for this Train
Other Trains in the News **new
Latest...
..
Tue Jul 01, 2014 (01:24PM)
⇐ Return Journey: Train# 53041

53042/Jaynagar - Howrah Passenger (UnReserved)

Sep 17 2013 (6:15PM)
Change Departure Station:
Change Arrival Station:
Post a Train Travel TipPost a Train Travel Tip **new
Post a Comment/Question/Picture/VideoPost a Comment/Question/Picture/Video
Pantry/Catering
✕ NO Pantry Car
✕ NO Catering
RSA - Rake Sharing
Rake/Coach Composition
Loco-SLR-GS-GS-GS-GS-GS-GS-GS-SLR
Loco
HWH/BWN WDM 2/3A
News    PNR    Forum    Time-Table    Availability    Fare Chart    Map    Arr/Dep History    Trips    Gallery    ΣChains    X/O    Timeline    
Travel Time: 22h 2m    94 halts    Distance: 535 km    Avg Speed: 24 km/hr
Type: Passenger
Zone: ER/Eastern
Departs @ 18:45 (Avg 5m late)
Platform# ???
SMTWTFS
Jaynagar/JYG 
Arrives @ 16:47 +1 night (Avg 2h 42m late)
Platform# ???
SMTWTFS
Bataspur/BSLE 

94 halts. 114 intermediate Stations between Jaynagar and Bataspur

Show ALL intermediate Stations  Show Old Time-Table

#CodeStation NameX/OArrivesAvgDepartsAvgHaltPFDay#KmSpeedElevZoneAddress
1JYG»Jaynagar (3)»  -18:45+5--10.04168mECRDistt: Madhubani, Bihar
2KRHAKorahiaX  18:55-18:56-1m--16.84570mECRKorahia, Bihar
3KJIKhajauli  19:03+919:04+101m--112.03970mECRMadhubani, Bihar
4LLPRLalit Lakshmipur  19:12-19:13-1m--117.34066mECRDokahar Rd, Bihar
5RJARajanagar  19:19+1119:20+151m--121.32765mECRRajnagar Distt: Madhubani, Bihar
6MBIMadhubani (3)X  19:42+719:43+131m--131.24562mECRMadhubani, Bihar
7PDWPandaul  19:55+1619:56+171m--140.23059mECRMadhubani, Bihar
8UGNAUgna Halt  20:03-20:04-1m--143.73357mECRUgna Halt, Bihar
9SKISakri Junction (5)  20:12+1620:17+215m--148.14455mECRMadhubani, Bihar
10SSNSShaheed Suraj Narayan Singh Halt  20:21-20:22-1m--151.02252mECRDarbhanga, Bihar
11TRSTarsaraiX  20:32+2020:33+251m--154.73854mECRDarbhanga, Bihar
12BJIHBijuli Halt  20:39-20:40-1m--158.61253mECRBijuli Halt, Bihar
13KKHTKakarghattiO  20:54+1820:55+261m--161.3854mECRDarbhanga, Bihar
14DBGDarbhanga Junction (5)  21:45+021:55+510m--167.73854mECRDarbhanga, Bihar
15LSILaheria Sarai (1)X  22:03+1222:08+135m1172.74452mECRDarbhanga, Bihar
16TLWAThalwaraX  22:14+1622:15+181m--177.13356mECRDarbhanga, Bihar
17HYTHaiaghatX  22:26+1822:27+211m--183.13051mECRDarbhanga, Bihar
18RBZRambhaddarpur  22:37+2122:38+251m--188.25051mECRSamastipur, Bihar
19KSPKishanpurX  22:46+2522:47+321m--194.84751mECRSamastipur, Bihar
20MKPRMuktapur (1)  22:55+3422:56+401m11101.11053mECRSamastipur, Bihar
21SPJSamastipur Junction (9)  23:20+1523:30+2310m--1105.13655mECRSamastipur, Bihar
22UJPUjiarpur (2)  23:45+4823:46+1:001m--1114.23151mECRSamastipur, Bihar
23NAZJNazirGanj  23:58+5623:59+1:031m--1120.53651mECRNazirGanj, Bihar
24DSSDalsingh Sarai (2)  00:12+5100:13+561m22128.31549mECR06278-221238, Bihar
25STJTSathajagat  00:31+5600:32+571m--2132.92849mECRSathajagat, Bihar
26BCABachwara Junction  00:46+5200:47+1:041m--2139.33149mECRBegusarai, Bihar
27TGATeghra (3)  01:04+5801:05+1:001m--2148.21048mECRBegusarai, Bihar
28BUJBarauni Flag (2)  01:20-01:21-1m--2150.8949mECRDistt: Begusarai, Bihar
29BJUBarauni Junction (9)XO  01:55+3202:05+3810m42155.83049mECRBegusarai, Bihar
30SAEDinkar Gram Simaria (3)  02:17+1:2002:18+1:341m--2161.810228mECRBegusarai, Bihar
31RJORajendra Pul (1)X  02:36+1:1902:37+1:511m12164.73249mECRSimaria, Bihar
32HTZHathidah Junction (2)X  02:43-02:44-1m--2167.92350mECRMusahari, Bihar
33BRYABarhiya (3)  03:08+1:3103:09+1:311m--2177.32247mECRBarahiya, Bihar
34GGSYGanga SahayX  03:16-03:17-1m--2179.92544mECRKIUL, Bihar
35DMRXDumri Halt (1)  03:21-03:22-1m12181.62849mECRNational Highway 80, Bihar
36DJSDhurani Jwas HaltX  03:29-03:30-1m--2184.82046mECRLakhisarai, Bihar
37MKBMankathaXO  03:36+1:5603:37+2:011m--2186.84247mECRNational Highway 80, Bihar
38LKRLuckeesarai Junction (2)  03:45+1:4703:46+1:471m--2192.4252mECRLakhisarai, Bihar
39KIULKiul Junction (5)  04:28+5504:35+547m--2193.74053mECRDist. Lakhisarai, Bihar
40DNREDhanauri  04:44+1:1604:45+1:161m--2199.84248mERNational Highway 80, Bihar
41URENUren  04:52+1:2604:53+1:261m--2204.65845mERUren, Bihar
42KJHKajra (2)  04:58+1:2704:59+1:281m--2209.45550mERLakhisarai District, Bihar
43AHAAbhaipur (2)  05:07+1:3105:08+1:311m--2216.74052mERAbhaipur, Bihar
44MSDNMasudan (2)  05:14+1:3305:15+1:331m--2220.85145mERMasudan, Bihar
45DRHDharhara (2)X  05:22+1:3405:23+1:341m--2226.85455mERDharhara, Bihar
46DRTPDasharathpur (2)  05:29+1:3505:30+1:351m--2232.24348mERDharhara, Bihar
47JMPJamalpur Junction (4)  05:39+1:2405:49+1:2910m--2238.64759mERJamalpur 06344-243101, Bihar
48RPURRatanpur (2)  05:57+1:5405:58+1:541m--2244.84946mERRatanpur Railway Station, Bihar
49BUPBariarpur (3)X  06:04+1:5506:05+1:561m--2249.71042mERMunger, Bihar
50KPRDKalyanpur Road (3)  06:13+1:5606:14+1:571m--2251.0940mERMunger, Bihar
51GNNAGangani (2)X  06:22+1:5606:23+1:561m--2252.211638mERGangania, Bihar
52SGGSultanGanj (3)  06:31+1:5706:32+2:011m--2267.64442mERSultanganj, Bihar
53MVVMaheshi (2)  06:41-06:42-1m--2274.34137mERTilakpur, Bihar
54AKNAkbarnagar (3)  06:47+1:5506:48+1:571m--2277.74439mERTilakpur, Bihar
55CTMPChhit Makhanpur (2)X  06:53-06:54-1m--2281.43138mERBhaunathpur, Bihar
56MPYMurarpur (2)  06:57-06:58-1m--2282.95938mERMau, Bihar
57NATNathnagar (2)X  07:03+1:5107:04+1:551m--2287.92648mERBhagalpur, Bihar
58BGPBhagalpur Junction (6)X  07:15+1:3607:30+1:3415m--2292.64549mERBhagalpur, Bihar
59SBOSabaur (3)  07:40+1:5207:41+2:011m--2300.12242mERSabour, Bihar
60LMMLailakh Mamalkha (2)  07:59+1:5508:00+1:571m--2306.85836mERLailakh Mamlkha, Bihar
61GGAGhoga (2)  08:06+2:0308:07+2:141m--2312.56942mERGhoga, Bihar
62EKCEkchari (1)  08:12+2:1708:13+2:181m12318.34437mERNational Highway 80, Bihar
63CLGKahalgaon (2)X  08:19+2:2508:20+2:281m12322.64444mERBhagalpur, Bihar
64BKSLBikram Shila (2)X  08:31+2:2608:32+2:391m--2330.71458mERBikram Shila, Bihar
65SVRPShivanarayanpur (2)  08:47+2:3308:48+2:461m--2334.12147mERShivanarayanpur, Bihar
66PPTPirpainti (2)  09:14+2:0909:15+2:201m--2343.04353mERBhagalpur, Bihar
67AMPLAmmapali (2)  09:21-09:22-1m--2347.36340mERAmmapali, Bihar
68MZCMirza Cheuki (3)X  09:26+2:5409:27+3:001m32351.51138mERBihar, Bihar
69KRMAKaramtola (2)  10:00+2:3810:01+2:451m22357.51935mERNational Highway 80, Bihar
70SBGSahibganj Junction (3)X  10:30+2:3810:40+2:4610m12366.55838mERSahibganj, Jharkhand
71SLJSakrigali Junction (3)X  10:48+2:4710:49+2:591m--2374.35345mERSakrigali, Jharkhand
72MJPMaharajpur (2)  10:56+2:3810:57+2:391m--2380.53334mERMoharajpur, Jharkhand
73KPTOKaranpur Ato  11:10+3:0411:11+3:051m--2387.66039mERKaranpur, Jharkhand
74TLJTaljhari  11:18+3:0711:19+3:151m--2394.73638mERTaljhari, Jharkhand
75KXEKalian Chak  11:27+3:1411:28+3:161m--2399.54845mERKalian Chak, Jharkhand
76TPHTinpahar Junction (3)  11:34+3:2311:35+3:241m22404.33645mERBamangawan, Jharkhand
77DDXDhamdhamia (2)  11:46+3:1611:47+3:181m--2411.02546mERDhamdhamia, Jharkhand
78BKLEBakudi (3)  11:52+3:2311:53+3:251m--2413.11465mERBakudi, Jharkhand
79BHWBarharwa Junction (3)  12:27+3:0112:37+3:1410m22421.04936mERBarharwa, Jharkhand
80GMANGumani (3)X  12:46+3:1812:47+3:211m--2428.45731mERGumani, Jharkhand
81KLPKotalpukur (3)  12:54+3:2212:55+3:221m--2435.05640mERKotalpukur, Jharkhand
82TBBTilbhita (3)X  13:03+3:2313:04+3:241m--2442.64231mERTilbhita, Jharkhand
83PKRPakur (2)  13:10+3:0213:11+3:031m22446.83637mERDist:- Pakur, Jharkhand
84NGFNagarnabi (3)  13:20+3:4513:21+3:481m12452.23530mERState Highway 5, Jharkhand
85RJGRajgram (3)  13:30+3:3513:31+3:361m22457.45832mERRajgram, West Bengal
86BSBRBanshlai Bridge (2)  13:38+3:2613:39+3:281m--2464.15035mERState Highway 5, West Bengal
87MRRMurarai (3)X  13:45+2:5213:46+3:031m--2469.05736mERMurarai, West Bengal
88CTRChatra (3)  13:54+3:3613:55+3:371m--2476.75742mERChatra, West Bengal
89NHTNalhati Junction (4)XO  14:04+3:2614:06+3:372m22485.35548mERNalhati, West Bengal
90SDLESwadinpur (3)X  14:14+3:5214:15+3:531m--2492.6644mERDIST-BIRBHUM, West Bengal
91RPHRampurhat (3)  15:26+2:1815:41+2:1915m--2499.36241mERDIST - Birbhum, West Bengal
92TPFTarapith Road (2)  15:48+2:2315:49+2:261m--2506.53945mERDist - Birbhum, West Bengal
93MLVMallarpur (3)XO  15:57+2:4915:58+2:511m--2511.87146mERDist - Birbhum, West Bengal
94GHLEGadadharpur (3)X  16:05+2:5416:06+3:001m22520.11352mERDist - Birbhum, West Bengal
95SNTSainthia Junction (4)X  16:40+2:4616:41+2:481m42527.37758mERDist - Birbhum, West Bengal
96BSLE•Bataspur (2)•O  16:47+2:4216:48+2:421m--2535.02154mERDist - Birbhum, West Bengal
97AMPAhmadpur Junction (3)X  17:04+2:2117:05+2:251m--2540.61746mERDist - Birbhum, West Bengal
98KPLEKopai (2)  17:34+2:2117:35+2:211m--2548.86148mERDist - Birbhum, West Bengal
99PNEPrantik (3)X  17:42+2:2017:43+2:201m--2555.84248mERPrantik, West Bengal
100BHPBolpur Shantiniketan (3)X  17:49+2:2017:52+2:213m--2560.16959mERBolpur, West Bengal
101BDHBhedia (2)  17:59+2:2618:00+2:261m--2568.14041mERDist - Bardhaman, West Bengal
102PCQPichkurirdhal (3)X  18:07+2:1718:08+2:171m--2572.85338mERDist - Bardhaman, West Bengal
103GKHGuskara (2)  18:15+2:2418:16+2:251m12579.03841mERDist - Bardhaman, West Bengal
104NRXNoadar Dhal (2)  18:26+1:5518:27+1:551m--2585.43746mERdist - bardhaman, West Bengal
105BPSBanpas (3)XO  18:33+1:5718:34+1:571m--2589.11146mERDist - Bardhaman, West Bengal
106JTLJhapater Dhal (4)X  18:54+1:4318:55+1:431m--2592.8836mERDist - Bardhaman, West Bengal
107KANKhana Junction (5)XO  19:38+1:3919:39+1:391m--2598.86542mERDist - Bardhaman, West Bengal
108TITTalit (4)X  19:44+1:0719:45+1:071m--2604.24637mERDist - Bardhaman, West Bengal
109BWNBarddhaman Junction (8)X  19:55+2:4420:15+2:4320m--2611.84534mERDist - Barddhaman, West Bengal
110BDCBandel Junction (7)  21:45+1:1721:50+1:185m--2679.03814mERdist - HOOGHLY, West Bengal
111CNSChuchura (3)X  21:56-21:57-1m--2682.83615mERDist - HOOGHLY - 712102, West Bengal
112CGRChandan Nagar (3)  22:02+4022:03+471m--2685.84616mERDist -HOOGHLY - 712136, West Bengal
113SHESeoraphuli Junction (6)X  22:17+2:0122:18+2:101m--2696.43813mERBaidyabati, West Bengal
114SRPSerampore (4)  22:22+1:1722:23+1:181m--2699.03211mERdist - hooghly, West Bengal
115HWHKolkata Howrah Junction (23)  23:00+2:10-42718.6-10mERHowrah 711101, West Bengal
Scroll to Top
Scroll to Bottom